| time (UTC) | temp F | wind direction | speed MPH | gust MPH | rain 1hr in | rain 24hr in | rain mn in | humidity % | barometer mb |
| 20260902023100 | 72 | 313 | 4.0 | 12.0 | 0.00 | 0.00 | 0.00 | 24 | 1008.9 |
| 20260902021554 | 73 | 334 | 3.0 | 16.0 | 0.00 | 0.00 | 0.00 | 22 | 1008.8 |
| 20260902020038 | 74 | 335 | 2.0 | 8.0 | 0.00 | 0.00 | 0.00 | 23 | 1008.8 |
| 20260902014544 | 75 | 306 | 4.0 | 12.0 | 0.00 | 0.00 | 0.00 | 22 | 1008.5 |
| 20260902013043 | 76 | 315 | 5.0 | 15.0 | 0.00 | 0.00 | 0.00 | 22 | 1008.4 |
| 20260902011543 | 78 | 275 | 5.0 | 18.0 | 0.00 | 0.00 | 0.00 | 21 | 1008.5 |
| 20260902010041 | 77 | 302 | 4.0 | 9.0 | 0.00 | 0.00 | 0.00 | 22 | 1008.6 |
| 20260902004549 | 77 | 307 | 5.0 | 16.0 | 0.00 | 0.00 | 0.00 | 20 | 1008.7 |
| 20260902003045 | 77 | 283 | 3.0 | 12.0 | 0.00 | 0.00 | 0.00 | 21 | 1008.6 |
| 20260902001541 | 78 | 250 | 4.0 | 8.0 | 0.00 | 0.00 | 0.00 | 20 | 1008.5 |
| 20260902000046 | 78 | 271 | 3.0 | 6.0 | 0.00 | 0.00 | 0.00 | 19 | 1008.4 |
| 20260901234544 | 79 | 333 | 3.0 | 10.0 | 0.00 | 0.00 | 0.00 | 19 | 1008.3 |
| 20260901233059 | 82 | 322 | 1.0 | 6.0 | 0.00 | 0.00 | 0.00 | 18 | 1008.4 |
| 20260901231544 | 82 | 0 | 0.0 | 4.0 | 0.00 | 0.00 | 0.00 | 23 | 1008.2 |
| 20260901230045 | 83 | 0 | 0.0 | 4.0 | 0.00 | 0.00 | 0.00 | 18 | 1008.2 |
| 20260901224542 | 85 | 0 | 0.0 | 1.0 | 0.00 | 0.00 | 0.00 | 22 | 1008.4 |
| 20260901223045 | 85 | 0 | 0.0 | 3.0 | 0.00 | 0.00 | 0.00 | 17 | 1008.5 |
| 20260901221543 | 84 | 0 | 0.0 | 2.0 | 0.00 | 0.00 | 0.00 | 25 | 1008.8 |
| 20260901220044 | 84 | 0 | 0.0 | 3.0 | 0.00 | 0.00 | 0.00 | 24 | 1009.0 |
| 20260901214543 | 83 | 0 | 0.0 | 2.0 | 0.00 | 0.00 | 0.00 | 26 | 1009.0 |
| 20260901213110 | 83 | 209 | 0.0 | 4.0 | 0.00 | 0.00 | 0.00 | 26 | 1009.4 |
| 20260901211543 | 83 | 0 | 0.0 | 3.0 | 0.00 | 0.00 | 0.00 | 24 | 1009.5 |
| 20260901210041 | 83 | 0 | 1.0 | 4.0 | 0.00 | 0.00 | 0.00 | 21 | 1009.8 |
| 20260901204543 | 83 | 0 | 0.0 | 4.0 | 0.00 | 0.00 | 0.00 | 27 | 1010.2 |
| 20260901203111 | 82 | 153 | 0.0 | 5.0 | 0.00 | 0.00 | 0.00 | 25 | 1010.4 |
| 20260901201541 | 82 | 75 | 0.0 | 3.0 | 0.00 | 0.00 | 0.00 | 22 | 1010.5 |
| 20260901200044 | 82 | 0 | 1.0 | 4.0 | 0.00 | 0.00 | 0.00 | 23 | 1010.7 |
| 20260901194544 | 80 | 117 | 0.0 | 3.0 | 0.00 | 0.00 | 0.00 | 25 | 1010.9 |
| 20260901193044 | 81 | 51 | 0.0 | 3.0 | 0.00 | 0.00 | 0.00 | 21 | 1011.0 |
| 20260901191556 | 80 | 0 | 0.0 | 3.0 | 0.00 | 0.00 | 0.00 | 23 | 1011.3 |
| 20260901190043 | 79 | 0 | 1.0 | 5.0 | 0.00 | 0.00 | 0.00 | 25 | 1011.4 |
| 20260901184547 | 80 | 324 | 1.0 | 5.0 | 0.00 | 0.00 | 0.00 | 21 | 1011.6 |
| 20260901183052 | 79 | 156 | 0.0 | 5.0 | 0.00 | 0.00 | 0.00 | 24 | 1011.7 |
| 20260901181544 | 78 | 0 | 0.0 | 5.0 | 0.00 | 0.00 | 0.00 | 26 | 1011.8 |
| 20260901180042 | 78 | 244 | 0.0 | 4.0 | 0.00 | 0.00 | 0.00 | 27 | 1012.0 |
| 20260901174541 | 77 | 0 | 0.0 | 3.0 | 0.00 | 0.00 | 0.00 | 23 | 1011.8 |
| 20260901173049 | 77 | 0 | 0.0 | 2.0 | 0.00 | 0.00 | 0.00 | 27 | 1011.8 |
| 20260901171547 | 76 | 0 | 0.0 | 3.0 | 0.00 | 0.00 | 0.00 | 28 | 1011.8 |
| 20260901170050 | 76 | 0 | 0.0 | 4.0 | 0.00 | 0.00 | 0.00 | 27 | 1011.8 |
| 20260901164557 | 75 | 94 | 0.0 | 4.0 | 0.00 | 0.00 | 0.00 | 27 | 1011.7 |
| 20260901163042 | 75 | 0 | 0.0 | 1.0 | 0.00 | 0.00 | 0.00 | 31 | 1011.8 |
| 20260901161548 | 74 | 0 | 0.0 | 4.0 | 0.00 | 0.00 | 0.00 | 30 | 1012.0 |
| 20260901160045 | 75 | 0 | 0.0 | 2.0 | 0.00 | 0.00 | 0.00 | 36 | 1011.9 |
| 20260901154543 | 72 | 0 | 0.0 | 1.0 | 0.00 | 0.00 | 0.00 | 42 | 1011.8 |
| 20260901153049 | 67 | 0 | 0.0 | 0.0 | 0.00 | 0.00 | 0.00 | 53 | 1011.8 |
| 20260901151544 | 61 | 0 | 0.0 | 1.0 | 0.00 | 0.00 | 0.00 | 57 | 1011.7 |
| 20260901150042 | 57 | 0 | 0.0 | 0.0 | 0.00 | 0.00 | 0.00 | 67 | 1011.8 |
| 20260901144543 | 54 | 0 | 0.0 | 0.0 | 0.00 | 0.00 | 0.00 | 74 | 1011.9 |
| 20260901143046 | 52 | 0 | 0.0 | 0.0 | 0.00 | 0.00 | 0.00 | 76 | 1011.9 |
| 20260901141551 | 52 | 0 | 0.0 | 1.0 | 0.00 | 0.00 | 0.00 | 76 | 1011.7 |
| 20260901140046 | 51 | 0 | 0.0 | 0.0 | 0.00 | 0.00 | 0.00 | 73 | 1011.5 |
| 20260901134548 | 52 | 0 | 0.0 | 0.0 | 0.00 | 0.00 | 0.00 | 71 | 1011.3 |
| 20260901133043 | 53 | 0 | 0.0 | 0.0 | 0.00 | 0.00 | 0.00 | 69 | 1011.2 |
| 20260901131541 | 54 | 0 | 0.0 | 0.0 | 0.00 | 0.00 | 0.00 | 67 | 1011.0 |
| 20260901130043 | 55 | 0 | 0.0 | 0.0 | 0.00 | 0.00 | 0.00 | 67 | 1011.0 |
| 20260901124545 | 55 | 0 | 0.0 | 1.0 | 0.00 | 0.00 | 0.00 | 67 | 1010.7 |
| 20260901123044 | 55 | 0 | 0.0 | 0.0 | 0.00 | 0.00 | 0.00 | 66 | 1010.6 |
| 20260901121542 | 55 | 0 | 0.0 | 2.0 | 0.00 | 0.00 | 0.00 | 66 | 1010.5 |
| 20260901120051 | 55 | 0 | 0.0 | 0.0 | 0.00 | 0.00 | 0.00 | 64 | 1010.3 |
| 20260901114543 | 56 | 0 | 0.0 | 0.0 | 0.00 | 0.00 | 0.00 | 63 | 1010.3 |
| 20260901113044 | 57 | 0 | 0.0 | 0.0 | 0.00 | 0.00 | 0.00 | 59 | 1010.5 |
| 20260901111542 | 57 | 0 | 0.0 | 0.0 | 0.00 | 0.00 | 0.00 | 59 | 1010.3 |
| 20260901110046 | 58 | 0 | 0.0 | 0.0 | 0.00 | 0.00 | 0.00 | 58 | 1010.2 |
| 20260901104546 | 57 | 0 | 0.0 | 0.0 | 0.00 | 0.00 | 0.00 | 60 | 1010.2 |
| 20260901103042 | 56 | 0 | 0.0 | 0.0 | 0.00 | 0.00 | 0.00 | 61 | 1010.2 |
| 20260901101606 | 56 | 0 | 0.0 | 0.0 | 0.00 | 0.00 | 0.00 | 62 | 1010.2 |
| 20260901100044 | 57 | 0 | 0.0 | 0.0 | 0.00 | 0.00 | 0.00 | 61 | 1010.3 |
| 20260901094543 | 57 | 0 | 0.0 | 0.0 | 0.00 | 0.00 | 0.00 | 58 | 1010.3 |
| 20260901093043 | 57 | 0 | 0.0 | 0.0 | 0.00 | 0.00 | 0.00 | 59 | 1010.3 |
| 20260901091550 | 59 | 0 | 0.0 | 0.0 | 0.00 | 0.00 | 0.00 | 56 | 1010.2 |
| 20260901090045 | 59 | 0 | 0.0 | 0.0 | 0.00 | 0.00 | 0.00 | 55 | 1010.0 |
| 20260901084541 | 59 | 0 | 0.0 | 0.0 | 0.00 | 0.00 | 0.00 | 55 | 1010.0 |
| 20260901083042 | 59 | 0 | 0.0 | 0.0 | 0.00 | 0.00 | 0.00 | 55 | 1010.1 |
| 20260901081549 | 60 | 0 | 0.0 | 0.0 | 0.00 | 0.00 | 0.00 | 53 | 1010.0 |
| 20260901080055 | 61 | 0 | 0.0 | 0.0 | 0.00 | 0.00 | 0.00 | 47 | 1010.2 |
| 20260901074548 | 61 | 0 | 0.0 | 0.0 | 0.00 | 0.00 | 0.00 | 47 | 1010.2 |
| 20260901073042 | 62 | 0 | 0.0 | 0.0 | 0.00 | 0.00 | 0.00 | 45 | 1010.0 |
| 20260901071544 | 64 | 0 | 0.0 | 0.0 | 0.00 | 0.00 | 0.00 | 43 | 1009.9 |
| 20260901070044 | 66 | 0 | 0.0 | 0.0 | 0.00 | 0.00 | 0.00 | 39 | 1009.9 |
| 20260901064542 | 68 | 0 | 0.0 | 0.0 | 0.00 | 0.00 | 0.00 | 37 | 1009.9 |
| 20260901063040 | 69 | 0 | 0.0 | 1.0 | 0.00 | 0.00 | 0.00 | 35 | 1009.7 |
| 20260901061544 | 70 | 302 | 1.0 | 3.0 | 0.00 | 0.00 | 0.00 | 34 | 1009.5 |
| 20260901060043 | 71 | 0 | 0.0 | 2.0 | 0.00 | 0.00 | 0.00 | 34 | 1009.6 |
| 20260901054540 | 72 | 0 | 0.0 | 4.0 | 0.00 | 0.00 | 0.00 | 33 | 1009.6 |
| 20260901053107 | 73 | 317 | 2.0 | 7.0 | 0.00 | 0.00 | 0.00 | 32 | 1009.6 |
| 20260901051601 | 73 | 274 | 1.0 | 4.0 | 0.00 | 0.00 | 0.00 | 33 | 1009.4 |
| 20260901050045 | 74 | 300 | 1.0 | 5.0 | 0.00 | 0.00 | 0.00 | 33 | 1009.4 |
| 20260901044548 | 74 | 0 | 1.0 | 5.0 | 0.00 | 0.00 | 0.00 | 33 | 1009.3 |
| 20260901043044 | 74 | 0 | 1.0 | 7.0 | 0.00 | 0.00 | 0.00 | 32 | 1009.2 |
| 20260901041555 | 75 | 297 | 0.0 | 6.0 | 0.00 | 0.00 | 0.00 | 32 | 1008.9 |
| 20260901040050 | 75 | 231 | 2.0 | 5.0 | 0.00 | 0.00 | 0.00 | 31 | 1008.9 |
| 20260901034542 | 76 | 295 | 1.0 | 6.0 | 0.00 | 0.00 | 0.00 | 31 | 1008.8 |
| 20260901033046 | 77 | 311 | 0.0 | 8.0 | 0.00 | 0.00 | 0.00 | 28 | 1008.7 |
| 20260901031554 | 77 | 326 | 2.0 | 6.0 | 0.00 | 0.00 | 0.00 | 27 | 1008.4 |
| 20260901030050 | 77 | 318 | 0.0 | 5.0 | 0.00 | 0.00 | 0.00 | 28 | 1008.3 |
| 20260901024547 | 77 | 309 | 0.0 | 4.0 | 0.00 | 0.00 | 0.00 | 27 | 1008.2 |